Flight Track Log - Related Links

Times and Time Zones

All times are in EDT time to prevent confusion due to time zone crossing. See the SWA2740 flight status page for this flight to view local times or setup timezone preferences in your user account.

Time Position Orientation Groundspeed Altitude Reporting Facility
EDT Latitude Longitude Course Direction KTS MPH feet Rate Location/Type
Sun 08:00:32 AM 29.7048 -94.5475 264° West  Level FlightAware Approximate
Sun 08:01:32 AM 29.7162 -94.4495 264° West  Level FlightAware Approximate
Sun 08:02:18 AM 29.6381 -95.2889 88° East 116 133 1,300  Level Houston Center
Sun 08:07:26 AM 29.6542 -94.8186 81° East 356 410 21,700 3,766 Climbing Houston Center
Sun 08:08:26 AM 29.6717 -94.6900 80° East 385 443 24,400 2,850 Climbing Houston Center
Sun 08:09:26 AM 29.6914 -94.5544 82° East 409 471 27,400 3,550 Climbing Houston Center
Sun 08:10:26 AM 29.7086 -94.4208 82° East 419 482 31,500 2,800 Climbing Houston Center
Sun 08:11:26 AM 29.7239 -94.2922 80° East 409 471 33,000 600 Climbing Houston Center
Sun 08:12:26 AM 29.7431 -94.1611 84° East 417 480 32,700 -600 Descending Houston Center
Sun 08:13:26 AM 29.7533 -94.0489 81° East 405 466 31,800 -850 Descending Houston Center
Sun 08:14:26 AM 29.7700 -93.9200 80° East 405 466 31,000 -400 Descending Houston Center
Sun 08:15:26 AM 29.7889 -93.7914 83° East 405 466 31,000  Level Houston Center
Sun 08:16:26 AM 29.8014 -93.6647 81° East 405 466 31,000  Level Houston Center
Sun 08:17:26 AM 29.8178 -93.5381 81° East 405 466 31,000  Level Houston Center
Sun 08:18:26 AM 29.8361 -93.4092 84° East 405 466 31,000  Level Houston Center
Sun 08:19:26 AM 29.8481 -93.2800 81° East 405 466 31,000  Level Houston Center
Sun 08:20:26 AM 29.8664 -93.1389 81° East 410 472 31,000  Level Houston Center
Sun 08:21:26 AM 29.8844 -93.0122 83° East 405 466 31,000  Level Houston Center
Sun 08:22:26 AM 29.8983 -92.8856 82° East 405 466 31,000  Level Houston Center
Sun 08:23:26 AM 29.9139 -92.7561 81° East 405 466 31,000  Level Houston Center
Sun 08:24:26 AM 29.9317 -92.6294 83° East 405 466 31,000  Level Houston Center
Sun 08:25:26 AM 29.9450 -92.5000 81° East 410 472 31,000  Level Houston Center
Sun 08:26:26 AM 29.9625 -92.3708 84° East 410 472 31,000  Level Houston Center
Sun 08:27:26 AM 29.9733 -92.2436 81° East 410 472 31,000  Level Houston Center
Sun 08:28:26 AM 29.9906 -92.1144 83° East 410 472 31,000 -400 Level Houston Center
Sun 08:29:26 AM 30.0036 -91.9847 83° East 405 466 30,200 -1,750 Descending Houston Center
Sun 08:30:26 AM 30.0164 -91.8553 84° East 405 466 27,500 -2,600 Descending Houston Center
Sun 08:31:26 AM 30.0289 -91.7258 82° East 405 466 25,000 -2,400 Descending Houston Center
Sun 08:32:26 AM 30.0436 -91.5964 79° East 405 466 22,700 -2,300 Descending Houston Center
Sun 08:33:26 AM 30.0644 -91.4739 84° East 405 466 20,400 -2,200 Descending Houston Center
Sun 08:34:26 AM 30.0747 -91.3539 86° East 386 444 18,300 -2,129 Descending Houston Center
Sun 08:34:59 AM 30.0786 -91.2892 86° East 368 423 17,100 -1,860 Descending Houston Center
Sun 08:36:06 AM 30.0867 -91.1642 95° East 345 397 15,200 -2,132 Descending Houston Center
Sun 08:37:00 AM 30.0800 -91.0753 96° East 336 387 12,800 -2,331 Descending Houston Center
Sun 08:38:07 AM 30.0689 -90.9506 101° East 333 383 10,500 -1,641 Descending Houston Center
Sun 08:39:08 AM 30.0539 -90.8594 89° East 298 343 9,300 -1,565 Descending Houston Center
Sun 08:40:02 AM 30.0553 -90.7781 90° East 280 322 7,500 -2,243 Descending Houston Center
Sun 08:41:03 AM 30.0547 -90.6917 90° East 273 314 5,000 -1,686 Descending Houston Center
Sun 08:42:03 AM 30.0542 -90.6125 93° East 245 282 4,100 -522 Descending Houston Center
Sun 08:42:58 AM 30.0517 -90.5475 101° East 225 259 4,000 -590 Descending Houston Center
Sun 08:44:05 AM 30.0383 -90.4711 104° East 226 260 2,900 -1,039 Descending Houston Center
Sun 08:45:05 AM 30.0231 -90.4017 106° East 206 237 1,800 -942 Descending Houston Center
Sun 08:46:06 AM 30.0103 -90.3514 107° East 170 196 1,000 -689 Descending Houston Center
Sun 08:47:07 AM 29.9992 -90.3083 101° East 136 157 400 12,857 Descending Houston Center
Sun 08:48:26 AM 29.9883 -90.2436 105° East 153 176 31,000 13,114 Climbing Houston Center
Sun 08:49:27 AM 29.9772 -90.1958 287° West 153 176 31,000  Level Houston Center
Sun 08:56:32 AM 30.1664 -90.9320 107° East  Level Estimated
Sun 08:57:32 AM 29.9833 -90.2500 107° East  Level FlightAware Approximate

Login

Don't have an account? Register now (free) for customized features, flight alerts, and more!